Time;durP1;ratioP1;P1;durP2;ratioP2;P2;SDS_P1;SDS_P2;PMS_P1;PMS_P2;Temp;Humidity;BMP_temperature;BMP_pressure;BME280_temperature;BME280_humidity;BME280_pressure;Samples;Min_cycle;Max_cycle;Signal;HPM_P1;HPM_P2
2022/01/04 00:01:11;;;;;;;;;4.50;4.00;;;;;-142.59;100.00;56100.38;4893928;28;49946;-62
2022/01/04 00:03:41;;;;;;;;;5.50;5.50;;;;;-142.59;100.00;56100.38;4893604;28;50620;-62
2022/01/04 00:06:07;;;;;;;;;5.75;5.75;;;;;-142.59;100.00;56100.38;4892440;29;49701;-63
2022/01/04 00:08:32;;;;;;;;;1.75;1.75;;;;;-142.59;100.00;56100.38;4893707;28;50206;-62
2022/01/04 00:11:08;;;;;;;;;3.00;3.00;;;;;-142.59;100.00;56100.38;4893530;28;49874;-63
2022/01/04 00:13:34;;;;;;;;;5.75;5.50;;;;;-142.59;100.00;56100.38;4893657;28;49889;-62
2022/01/04 00:16:00;;;;;;;;;5.00;5.00;;;;;-142.59;100.00;56100.38;4893410;29;49764;-62
2022/01/04 00:18:26;;;;;;;;;6.25;5.50;;;;;-142.59;100.00;56100.38;4893618;28;49786;-62
2022/01/04 00:20:53;;;;;;;;;3.00;3.00;;;;;-142.59;100.00;56100.38;4893952;28;49772;-62
2022/01/04 00:23:19;;;;;;;;;4.75;4.00;;;;;-142.59;100.00;56100.38;4893627;28;49897;-63
2022/01/04 00:25:45;;;;;;;;;3.50;3.50;;;;;-142.59;100.00;56100.38;4893421;28;49865;-63
2022/01/04 00:28:13;;;;;;;;;3.50;2.75;;;;;-142.59;100.00;56100.38;4893320;28;50030;-62
2022/01/04 00:30:45;;;;;;;;;4.00;4.00;;;;;-142.59;100.00;56100.38;4893401;28;49641;-62
2022/01/04 00:33:16;;;;;;;;;5.00;5.00;;;;;-142.59;100.00;56100.38;4891886;28;49820;-62
2022/01/04 00:35:43;;;;;;;;;4.75;3.25;;;;;-142.59;100.00;56100.38;4893510;28;49592;-63
2022/01/04 00:38:09;;;;;;;;;5.00;5.00;;;;;-142.59;100.00;56100.38;4893571;28;50076;-62
2022/01/04 00:40:35;;;;;;;;;5.00;5.00;;;;;-142.59;100.00;56100.38;4893493;29;49586;-62
2022/01/04 00:43:03;;;;;;;;;3.75;3.75;;;;;-142.59;100.00;56100.38;4893003;28;50397;-62
2022/01/04 00:45:32;;;;;;;;;8.25;5.50;;;;;-142.59;100.00;56100.38;4893009;28;49820;-62
2022/01/04 00:50:32;;;;;;;;;4.00;4.00;;;;;-142.59;100.00;56100.38;4893385;28;49780;-62
2022/01/04 00:52:58;;;;;;;;;1.00;1.00;;;;;-142.59;100.00;56100.38;4893066;28;49846;-62
2022/01/04 00:55:24;;;;;;;;;2.75;1.75;;;;;-142.59;100.00;56100.38;4896111;28;49615;-62
2022/01/04 00:57:50;;;;;;;;;0.00;0.00;;;;;-142.59;100.00;56100.38;4895975;28;49810;-62
2022/01/04 01:00:19;;;;;;;;;2.25;0.00;;;;;-142.59;100.00;56100.38;4896648;28;49784;-62
2022/01/04 01:02:44;;;;;;;;;1.00;1.00;;;;;-142.59;100.00;56100.38;4896126;28;50374;-62
2022/01/04 01:05:14;;;;;;;;;0.25;0.00;;;;;-142.59;100.00;56100.38;4896283;28;49911;-62
2022/01/04 01:07:40;;;;;;;;;0.00;0.00;;;;;-142.59;100.00;56100.38;4895119;28;49811;-62
2022/01/04 01:12:52;;;;;;;;;1.00;1.00;;;;;-142.59;100.00;56100.38;4895560;29;50282;-62
2022/01/04 01:15:18;;;;;;;;;1.00;1.00;;;;;-142.59;100.00;56100.38;4896028;28;49952;-62
2022/01/04 01:17:44;;;;;;;;;0.50;0.00;;;;;-142.59;100.00;56100.38;4896235;29;49852;-62
2022/01/04 01:20:10;;;;;;;;;0.00;0.00;;;;;-142.59;100.00;56100.38;4896096;28;49769;-62
2022/01/04 01:22:36;;;;;;;;;1.00;1.00;;;;;-142.59;100.00;56100.38;4895702;29;51173;-63
2022/01/04 01:25:04;;;;;;;;;0.00;0.00;;;;;-142.59;100.00;56100.38;4895743;28;49842;-62
2022/01/04 01:27:29;;;;;;;;;0.00;0.00;;;;;-142.59;100.00;56100.38;4895850;28;49625;-62
2022/01/04 01:29:54;;;;;;;;;0.00;0.00;;;;;-142.59;100.00;56100.38;4896062;28;49682;-62
2022/01/04 01:32:20;;;;;;;;;2.00;0.75;;;;;-142.59;100.00;56100.38;4895638;28;50587;-62
2022/01/04 01:34:45;;;;;;;;;0.00;0.00;;;;;-142.59;100.00;56100.38;4895832;28;49723;-62
2022/01/04 01:37:10;;;;;;;;;0.50;0.50;;;;;-142.59;100.00;56100.38;4895802;28;49981;-62
2022/01/04 01:39:37;;;;;;;;;1.00;1.00;;;;;-142.59;100.00;56100.38;4894369;29;50077;-62
2022/01/04 01:42:03;;;;;;;;;1.50;1.50;;;;;-142.59;100.00;56100.38;4895418;28;50775;-62
2022/01/04 01:44:31;;;;;;;;;0.00;0.00;;;;;-142.59;100.00;56100.38;4895560;28;49724;-62
2022/01/04 01:46:56;;;;;;;;;0.25;0.25;;;;;-142.59;100.00;56100.38;4895650;28;49917;-62
2022/01/04 01:49:22;;;;;;;;;0.50;0.50;;;;;-142.59;100.00;56100.38;4894421;29;49832;-62
2022/01/04 01:51:47;;;;;;;;;0.00;0.00;;;;;-142.59;100.00;56100.38;4895442;29;50587;-62
2022/01/04 01:54:13;;;;;;;;;0.00;0.00;;;;;-142.59;100.00;56100.38;4895621;28;49729;-62
2022/01/04 01:56:39;;;;;;;;;0.00;0.00;;;;;-142.59;100.00;56100.38;4895384;28;49744;-62
2022/01/04 01:59:04;;;;;;;;;0.00;0.00;;;;;-142.59;100.00;56100.38;4895273;28;50042;-62
2022/01/04 02:01:29;;;;;;;;;0.00;0.00;;;;;-142.59;100.00;56100.38;4895444;28;49902;-62
2022/01/04 02:03:55;;;;;;;;;0.00;0.00;;;;;-142.59;100.00;56100.38;4895374;29;49740;-62
2022/01/04 02:06:21;;;;;;;;;0.00;0.00;;;;;-142.59;100.00;56100.38;4894843;28;49775;-62
2022/01/04 02:08:46;;;;;;;;;0.00;0.00;;;;;-142.59;100.00;56100.38;4895687;28;49738;-62
2022/01/04 02:11:12;;;;;;;;;0.00;0.00;;;;;-142.59;100.00;56100.38;4894994;29;50631;-63
2022/01/04 02:13:38;;;;;;;;;0.75;0.00;;;;;-142.59;100.00;56100.38;4893847;29;50424;-62
2022/01/04 02:16:03;;;;;;;;;0.00;0.00;;;;;-142.59;100.00;56100.38;4895279;28;49728;-63
2022/01/04 02:18:29;;;;;;;;;0.00;0.00;;;;;-142.59;100.00;56100.38;4895339;28;49673;-62
2022/01/04 02:20:55;;;;;;;;;0.00;0.00;;;;;-142.59;100.00;56100.38;4894945;28;50938;-62
2022/01/04 02:23:21;;;;;;;;;2.00;2.00;;;;;-142.59;100.00;56100.38;4894968;28;49757;-62
2022/01/04 02:25:48;;;;;;;;;1.00;1.00;;;;;-142.59;100.00;56100.38;4894921;28;49951;-62
2022/01/04 02:28:18;;;;;;;;;2.00;1.00;;;;;-142.59;100.00;56100.38;4895191;29;49803;-62
2022/01/04 02:30:43;;;;;;;;;0.25;0.25;;;;;-142.59;100.00;56100.38;4894746;28;50788;-62
2022/01/04 02:33:08;;;;;;;;;1.00;1.00;;;;;-142.59;100.00;56100.38;4893064;29;50054;-62
2022/01/04 02:35:35;;;;;;;;;0.00;0.00;;;;;-142.59;100.00;56100.38;4894827;28;49826;-62
2022/01/04 02:38:01;;;;;;;;;0.00;0.00;;;;;-142.59;100.00;56100.38;4895082;28;49724;-62
2022/01/04 02:40:27;;;;;;;;;0.00;0.00;;;;;-142.59;100.00;56100.38;4894776;28;49971;-62
2022/01/04 02:42:54;;;;;;;;;0.00;0.00;;;;;-142.59;100.00;56100.38;4894525;28;49813;-62
2022/01/04 02:45:19;;;;;;;;;0.00;0.00;;;;;-142.59;100.00;56100.38;4893073;29;49903;-62
2022/01/04 02:47:44;;;;;;;;;0.00;0.00;;;;;-142.59;100.00;56100.38;4894975;28;49824;-62
2022/01/04 02:50:11;;;;;;;;;0.00;0.00;;;;;-142.59;100.00;56100.38;4894484;28;50558;-62
2022/01/04 02:52:38;;;;;;;;;0.00;0.00;;;;;-142.59;100.00;56100.38;4894715;28;49645;-62
2022/01/04 02:55:06;;;;;;;;;0.00;0.00;;;;;-142.59;100.00;56100.38;4894683;28;49835;-62
2022/01/04 02:57:32;;;;;;;;;0.00;0.00;;;;;-142.59;100.00;56100.38;4894345;29;50031;-62
2022/01/04 02:59:57;;;;;;;;;0.00;0.00;;;;;-142.59;100.00;56100.38;4894305;28;50516;-62
2022/01/04 03:02:22;;;;;;;;;0.00;0.00;;;;;-142.59;100.00;56100.38;4894538;28;49902;-62
2022/01/04 03:04:48;;;;;;;;;0.00;0.00;;;;;-142.59;100.00;56100.38;4894655;28;50511;-62
2022/01/04 03:07:13;;;;;;;;;0.00;0.00;;;;;-142.59;100.00;56100.38;4894642;28;49642;-62
2022/01/04 03:09:39;;;;;;;;;0.50;0.00;;;;;-142.59;100.00;56100.38;4894355;28;50418;-62
2022/01/04 03:12:05;;;;;;;;;0.00;0.00;;;;;-142.59;100.00;56100.38;4894114;28;49698;-62
2022/01/04 03:14:30;;;;;;;;;0.50;0.00;;;;;-142.59;100.00;56100.38;4894307;28;49661;-62
2022/01/04 03:16:56;;;;;;;;;0.00;0.00;;;;;-142.59;100.00;56100.38;4893832;28;49698;-62
2022/01/04 03:19:21;;;;;;;;;0.00;0.00;;;;;-142.59;100.00;56100.38;4893660;28;49861;-62
2022/01/04 03:21:47;;;;;;;;;0.00;0.00;;;;;-142.59;100.00;56100.38;4894370;28;49911;-62
2022/01/04 03:24:13;;;;;;;;;0.00;0.00;;;;;-142.59;100.00;56100.38;4894409;28;49854;-62
2022/01/04 03:26:39;;;;;;;;;0.00;0.00;;;;;-142.59;100.00;56100.38;4894115;29;49854;-62
2022/01/04 03:29:07;;;;;;;;;1.00;0.00;;;;;-142.59;100.00;56100.38;4893846;28;49942;-63
2022/01/04 03:31:33;;;;;;;;;0.00;0.00;;;;;-142.59;100.00;56100.38;4892645;29;49847;-62
2022/01/04 03:33:59;;;;;;;;;0.00;0.00;;;;;-142.59;100.00;56100.38;4894070;28;49968;-62
2022/01/04 03:36:25;;;;;;;;;0.00;0.00;;;;;-142.59;100.00;56100.38;4894268;28;49943;-62
2022/01/04 03:38:54;;;;;;;;;0.00;0.00;;;;;-142.59;100.00;56100.38;4893682;28;49931;-62
2022/01/04 03:41:22;;;;;;;;;0.00;0.00;;;;;-142.59;100.00;56100.38;4893963;28;49702;-63
2022/01/04 03:43:48;;;;;;;;;0.00;0.00;;;;;-142.59;100.00;56100.38;4894060;28;50027;-62
2022/01/04 03:46:14;;;;;;;;;0.00;0.00;;;;;-142.59;100.00;56100.38;4892722;29;49713;-62
2022/01/04 03:48:39;;;;;;;;;0.00;0.00;;;;;-142.59;100.00;56100.38;4893701;28;49715;-62
2022/01/04 03:51:06;;;;;;;;;0.75;0.75;;;;;-142.59;100.00;56100.38;4893939;28;49779;-62
2022/01/04 03:53:32;;;;;;;;;0.00;0.00;;;;;-142.59;100.00;56100.38;4894052;28;50003;-62
2022/01/04 03:55:58;;;;;;;;;0.00;0.00;;;;;-142.59;100.00;56100.38;4893763;29;49736;-62
2022/01/04 03:58:23;;;;;;;;;0.00;0.00;;;;;-142.59;100.00;56100.38;4893427;29;50823;-62
2022/01/04 04:00:49;;;;;;;;;0.00;0.00;;;;;-142.59;100.00;56100.38;4893805;29;50141;-62
2022/01/04 04:03:15;;;;;;;;;0.00;0.00;;;;;-142.59;100.00;56100.38;4893789;29;50131;-62
2022/01/04 04:05:40;;;;;;;;;0.00;0.00;;;;;-142.59;100.00;56100.38;4894024;28;49870;-62
2022/01/04 04:08:06;;;;;;;;;0.00;0.00;;;;;-142.59;100.00;56100.38;4893524;28;50388;-62
2022/01/04 04:10:31;;;;;;;;;0.00;0.00;;;;;-142.59;100.00;56100.38;4892075;29;49827;-62
2022/01/04 04:12:57;;;;;;;;;0.50;0.00;;;;;-142.59;100.00;56100.38;4893660;28;50213;-62
2022/01/04 04:15:22;;;;;;;;;0.00;0.00;;;;;-142.59;100.00;56100.38;4893671;28;49741;-62
2022/01/04 04:17:47;;;;;;;;;0.00;0.00;;;;;-142.59;100.00;56100.38;4893457;28;49732;-62
2022/01/04 04:20:13;;;;;;;;;0.00;0.00;;;;;-142.59;100.00;56100.38;4893659;28;49926;-63
2022/01/04 04:22:39;;;;;;;;;0.50;0.00;;;;;-142.59;100.00;56100.38;4892091;29;49836;-62
2022/01/04 04:25:05;;;;;;;;;1.00;0.00;;;;;-142.59;100.00;56100.38;4893379;29;50050;-62
2022/01/04 04:27:30;;;;;;;;;0.00;0.00;;;;;-142.59;100.00;56100.38;4891828;29;51210;-62
2022/01/04 04:29:56;;;;;;;;;0.25;0.25;;;;;-142.59;100.00;56100.38;4895641;28;49843;-62
2022/01/04 04:32:22;;;;;;;;;0.00;0.00;;;;;-142.59;100.00;56100.38;4896917;28;49624;-62
2022/01/04 04:34:47;;;;;;;;;0.00;0.00;;;;;-142.59;100.00;56100.38;4895491;29;49631;-62
2022/01/04 04:37:13;;;;;;;;;0.75;0.00;;;;;-142.59;100.00;56100.38;4896517;28;50049;-63
2022/01/04 04:39:38;;;;;;;;;0.00;0.00;;;;;-142.59;100.00;56100.38;4896594;29;49925;-62
2022/01/04 04:42:04;;;;;;;;;1.00;0.00;;;;;-142.59;100.00;56100.38;4896370;28;49899;-63
2022/01/04 04:44:30;;;;;;;;;0.00;0.00;;;;;-142.59;100.00;56100.38;4896843;28;49794;-61
2022/01/04 04:46:56;;;;;;;;;0.00;0.00;;;;;-142.59;100.00;56100.38;4896255;28;49915;-62
2022/01/04 04:49:21;;;;;;;;;0.00;0.00;;;;;-142.59;100.00;56100.38;4896573;28;49732;-62
2022/01/04 04:51:47;;;;;;;;;0.00;0.00;;;;;-142.59;100.00;56100.38;4896567;29;50002;-62
2022/01/04 04:54:13;;;;;;;;;0.00;0.00;;;;;-142.59;100.00;56100.38;4896695;28;49764;-62
2022/01/04 04:56:38;;;;;;;;;0.00;0.00;;;;;-142.59;100.00;56100.38;4895998;28;50529;-62
2022/01/04 04:59:08;;;;;;;;;0.00;0.00;;;;;-142.59;100.00;56100.38;4896008;29;49992;-63
2022/01/04 05:01:33;;;;;;;;;0.00;0.00;;;;;-142.59;100.00;56100.38;4896222;28;49889;-63
2022/01/04 05:03:59;;;;;;;;;0.00;0.00;;;;;-142.59;100.00;56100.38;4896543;28;49926;-62
2022/01/04 05:06:25;;;;;;;;;0.00;0.00;;;;;-142.59;100.00;56100.38;4894691;28;51450;-63
2022/01/04 05:08:51;;;;;;;;;0.00;0.00;;;;;-142.59;100.00;56100.38;4896416;28;49975;-63
2022/01/04 05:11:16;;;;;;;;;0.25;0.00;;;;;-142.59;100.00;56100.38;4896062;29;50165;-62
2022/01/04 05:13:42;;;;;;;;;0.00;0.00;;;;;-142.59;100.00;56100.38;4896204;28;49985;-62
2022/01/04 05:16:07;;;;;;;;;0.00;0.00;;;;;-142.59;100.00;56100.38;4896073;28;50874;-62
2022/01/04 05:18:32;;;;;;;;;0.00;0.00;;;;;-142.59;100.00;56100.38;4895959;28;49874;-64
2022/01/04 05:20:58;;;;;;;;;1.00;0.00;;;;;-142.59;100.00;56100.38;4896079;29;49812;-62
2022/01/04 05:23:23;;;;;;;;;0.00;0.00;;;;;-142.59;100.00;56100.38;4896323;28;49923;-63
2022/01/04 05:25:48;;;;;;;;;0.00;0.00;;;;;-142.59;100.00;56100.38;4895648;29;50342;-62
2022/01/04 05:28:14;;;;;;;;;0.00;0.00;;;;;-142.59;100.00;56100.38;4895842;28;50580;-65
2022/01/04 05:30:39;;;;;;;;;0.00;0.00;;;;;-142.59;100.00;56100.38;4895884;28;49780;-62
2022/01/04 05:33:05;;;;;;;;;0.00;0.00;;;;;-142.59;100.00;56100.38;4896097;28;49561;-62
2022/01/04 05:35:30;;;;;;;;;0.00;0.00;;;;;-142.59;100.00;56100.38;4895685;29;50522;-62
2022/01/04 05:37:55;;;;;;;;;1.00;1.00;;;;;-142.59;100.00;56100.38;4894275;28;50159;-63
2022/01/04 05:40:21;;;;;;;;;0.00;0.00;;;;;-142.59;100.00;56100.38;4895157;28;50213;-62
2022/01/04 05:42:46;;;;;;;;;1.00;1.00;;;;;-142.59;100.00;56100.38;4895703;28;49761;-62
2022/01/04 05:45:14;;;;;;;;;1.00;0.75;;;;;-142.59;100.00;56100.38;4895638;28;50869;-62
2022/01/04 05:47:40;;;;;;;;;0.00;0.00;;;;;-142.59;100.00;56100.38;4895867;29;49583;-63
2022/01/04 05:50:06;;;;;;;;;0.00;0.00;;;;;-142.59;100.00;56100.38;4895686;28;49898;-62
2022/01/04 05:52:32;;;;;;;;;0.00;0.00;;;;;-142.59;100.00;56100.38;4895750;28;50060;-62
2022/01/04 05:54:58;;;;;;;;;0.00;0.00;;;;;-142.59;100.00;56100.38;4895500;28;50585;-62
2022/01/04 05:57:23;;;;;;;;;0.00;0.00;;;;;-142.59;100.00;56100.38;4894943;28;49934;-62
2022/01/04 05:59:49;;;;;;;;;0.75;0.75;;;;;-142.59;100.00;56100.38;4894046;29;49809;-62
2022/01/04 06:02:14;;;;;;;;;0.00;0.00;;;;;-142.59;100.00;56100.38;4895690;28;49752;-63
2022/01/04 06:04:39;;;;;;;;;1.00;1.00;;;;;-142.59;100.00;56100.38;4895266;28;49647;-62
2022/01/04 06:07:05;;;;;;;;;2.25;1.25;;;;;-142.59;100.00;56100.38;4895446;29;49688;-62
2022/01/04 06:09:40;;;;;;;;;1.00;1.00;;;;;-142.59;100.00;56100.38;4895329;28;49942;-62
2022/01/04 06:14:50;;;;;;;;;0.00;0.00;;;;;-142.59;100.00;56100.38;4889729;29;50081;-62
2022/01/04 06:14:52;;;;;;;;;1.00;1.00;;;;;-142.59;100.00;56100.38;4897773;29;50701;-64
2022/01/04 06:17:19;;;;;;;;;0.00;0.00;;;;;-142.59;100.00;56100.38;4895472;28;49764;-67
2022/01/04 06:19:45;;;;;;;;;0.75;0.75;;;;;-142.59;100.00;56100.38;4894885;28;49977;-67
2022/01/04 06:22:11;;;;;;;;;0.00;0.00;;;;;-142.59;100.00;56100.38;4895242;29;49816;-73
2022/01/04 06:24:38;;;;;;;;;1.00;1.00;;;;;-142.59;100.00;56100.38;4893408;29;50778;-74
2022/01/04 06:27:23;;;;;;;;;1.50;1.50;;;;;-142.59;100.00;56100.38;4895028;28;49704;-70
2022/01/04 06:29:48;;;;;;;;;0.25;0.25;;;;;-142.59;100.00;56100.38;4894894;29;49783;-68
2022/01/04 06:32:14;;;;;;;;;1.00;0.00;;;;;-142.59;100.00;56100.38;4895310;28;50283;-66
2022/01/04 06:34:42;;;;;;;;;0.00;0.00;;;;;-142.59;100.00;56100.38;4895012;28;49897;-65
2022/01/04 06:37:08;;;;;;;;;1.00;1.00;;;;;-142.59;100.00;56100.38;4894822;29;49689;-65
2022/01/04 06:39:34;;;;;;;;;2.50;2.00;;;;;-142.59;100.00;56100.38;4894692;28;49970;-69
2022/01/04 06:41:59;;;;;;;;;1.75;1.75;;;;;-142.59;100.00;56100.38;4893361;29;49679;-69
2022/01/04 06:44:26;;;;;;;;;3.00;2.25;;;;;-142.59;100.00;56100.38;4893134;29;51730;-66
2022/01/04 06:46:52;;;;;;;;;3.00;3.00;;;;;-142.59;100.00;56100.38;4894766;29;49971;-64
2022/01/04 06:49:19;;;;;;;;;1.00;1.00;;;;;-142.59;100.00;56100.38;4894520;28;49697;-62
2022/01/04 06:51:47;;;;;;;;;3.25;2.00;;;;;-142.59;100.00;56100.38;4894894;28;49671;-62
2022/01/04 06:54:13;;;;;;;;;2.00;2.00;;;;;-142.59;100.00;56100.38;4894183;29;50717;-61
2022/01/04 06:56:39;;;;;;;;;3.25;3.25;;;;;-142.59;100.00;56100.38;4892284;28;49827;-62
2022/01/04 06:59:06;;;;;;;;;2.00;2.00;;;;;-142.59;100.00;56100.38;4893736;28;49870;-61
2022/01/04 07:01:33;;;;;;;;;2.00;2.00;;;;;-142.59;100.00;56100.38;4894189;28;50082;-62
2022/01/04 07:03:58;;;;;;;;;3.00;2.00;;;;;-142.59;100.00;56100.38;4893536;28;50681;-62
2022/01/04 07:06:24;;;;;;;;;2.00;2.00;;;;;-142.59;100.00;56100.38;4892619;29;49800;-62
2022/01/04 07:08:49;;;;;;;;;2.00;2.00;;;;;-142.59;100.00;56100.38;4893953;28;49759;-61
2022/01/04 07:11:16;;;;;;;;;4.00;4.00;;;;;-142.59;100.00;56100.38;4894338;29;50169;-62
2022/01/04 07:13:41;;;;;;;;;4.50;4.50;;;;;-142.59;100.00;56100.38;4894363;28;51649;-64
2022/01/04 07:16:07;;;;;;;;;5.25;4.00;;;;;-142.59;100.00;56100.38;4894420;29;49862;-63
2022/01/04 07:18:32;;;;;;;;;4.75;4.75;;;;;-142.59;100.00;56100.38;4894558;28;49839;-64
2022/01/04 07:20:58;;;;;;;;;6.00;5.75;;;;;-142.59;100.00;56100.38;4896168;28;49907;-62
2022/01/04 07:23:23;;;;;;;;;3.25;3.25;;;;;-142.59;100.00;56100.38;4894143;28;50743;-63
2022/01/04 07:25:49;;;;;;;;;3.00;3.00;;;;;-142.59;100.00;56100.38;4893869;28;49819;-62
2022/01/04 07:28:15;;;;;;;;;3.00;2.00;;;;;-142.59;100.00;56100.38;4894135;28;49912;-64
2022/01/04 07:30:41;;;;;;;;;1.25;1.25;;;;;-142.59;100.00;56100.38;4894319;28;49923;-62
2022/01/04 07:33:07;;;;;;;;;1.50;1.50;;;;;-142.59;100.00;56100.38;4893889;29;50691;-63
2022/01/04 07:35:32;;;;;;;;;2.75;2.00;;;;;-142.59;100.00;56100.38;4894276;28;49848;-66
2022/01/04 07:37:58;;;;;;;;;3.00;2.00;;;;;-142.59;100.00;56100.38;4892749;29;49843;-62
2022/01/04 07:40:23;;;;;;;;;2.25;2.25;;;;;-142.59;100.00;56100.38;4894010;28;49900;-62
2022/01/04 07:42:49;;;;;;;;;1.50;1.00;;;;;-142.59;100.00;56100.38;4890714;28;52345;-64
2022/01/04 07:45:14;;;;;;;;;2.00;2.00;;;;;-142.59;100.00;56100.38;4897817;28;49706;-67
2022/01/04 07:47:43;;;;;;;;;1.00;1.00;;;;;-142.59;100.00;56100.38;4893733;28;50155;-63
2022/01/04 07:50:11;;;;;;;;;3.50;2.00;;;;;-142.59;100.00;56100.38;4893802;28;49645;-64
2022/01/04 07:52:36;;;;;;;;;1.75;1.00;;;;;-142.59;100.00;56100.38;4893851;28;50008;-63
2022/01/04 07:55:03;;;;;;;;;1.00;1.00;;;;;-142.59;100.00;56100.38;4893707;29;49721;-65
2022/01/04 07:57:28;;;;;;;;;3.00;1.00;;;;;-142.59;100.00;56100.38;4893372;28;49793;-67
2022/01/04 07:59:54;;;;;;;;;1.25;1.25;;;;;-142.59;100.00;56100.38;4893767;28;49970;-72
2022/01/04 08:02:19;;;;;;;;;1.00;1.00;;;;;-142.59;100.00;56100.38;4893470;28;49763;-62
2022/01/04 08:04:44;;;;;;;;;2.00;1.50;;;;;-142.59;100.00;56100.38;4895818;28;49915;-62
2022/01/04 08:07:10;;;;;;;;;1.00;1.00;;;;;-142.59;100.00;56100.38;4897241;28;49688;-59
2022/01/04 08:09:35;;;;;;;;;1.50;1.50;;;;;-142.59;100.00;56100.38;4897288;28;49566;-59
2022/01/04 08:12:00;;;;;;;;;2.00;1.50;;;;;-142.59;100.00;56100.38;4896628;28;49824;-59
2022/01/04 08:14:26;;;;;;;;;3.00;3.00;;;;;-142.59;100.00;56100.38;4897002;28;49796;-62
2022/01/04 08:16:53;;;;;;;;;2.25;2.25;;;;;-142.59;100.00;56100.38;4896909;28;49721;-61
2022/01/04 08:19:18;;;;;;;;;4.00;3.00;;;;;-142.59;100.00;56100.38;4896983;28;49963;-61
2022/01/04 08:21:44;;;;;;;;;4.75;4.75;;;;;-142.59;100.00;56100.38;4896970;28;50753;-62
2022/01/04 08:24:09;;;;;;;;;3.25;3.25;;;;;-142.59;100.00;56100.38;4896733;28;49978;-60
2022/01/04 08:26:36;;;;;;;;;4.50;4.50;;;;;-142.59;100.00;56100.38;4896826;28;49771;-60
2022/01/04 08:29:01;;;;;;;;;9.00;6.50;;;;;-142.59;100.00;56100.38;4896913;28;49824;-60
2022/01/04 08:31:26;;;;;;;;;8.50;8.50;;;;;-142.59;100.00;56100.38;4896269;28;50619;-61
2022/01/04 08:33:52;;;;;;;;;8.00;8.00;;;;;-142.59;100.00;56100.38;4896637;28;49851;-63
2022/01/04 08:36:18;;;;;;;;;9.50;9.50;;;;;-142.59;100.00;56100.38;4896705;28;49831;-61
2022/01/04 08:38:43;;;;;;;;;8.75;8.75;;;;;-142.59;100.00;56100.38;4896603;28;49907;-65
2022/01/04 08:41:09;;;;;;;;;9.00;9.00;;;;;-142.59;100.00;56100.38;4894351;28;49803;-63
2022/01/04 08:43:35;;;;;;;;;9.50;9.50;;;;;-142.59;100.00;56100.38;4894805;28;49864;-60
2022/01/04 08:46:00;;;;;;;;;15.50;14.75;;;;;-142.59;100.00;56100.38;4896594;29;49893;-61
2022/01/04 08:48:25;;;;;;;;;11.00;9.25;;;;;-142.59;100.00;56100.38;4896852;28;49721;-61
2022/01/04 08:50:51;;;;;;;;;14.50;13.50;;;;;-142.59;100.00;56100.38;4896301;29;50768;-61
2022/01/04 08:53:16;;;;;;;;;11.75;11.50;;;;;-142.59;100.00;56100.38;4896441;28;49606;-61
2022/01/04 08:55:41;;;;;;;;;10.75;10.75;;;;;-142.59;100.00;56100.38;4896223;28;49791;-61
2022/01/04 08:58:07;;;;;;;;;12.00;12.00;;;;;-142.59;100.00;56100.38;4896313;28;49979;-60
2022/01/04 09:00:34;;;;;;;;;11.50;9.00;;;;;-142.59;100.00;56100.38;4894487;28;51777;-61
2022/01/04 09:02:59;;;;;;;;;15.75;13.25;;;;;-142.59;100.00;56100.38;4896383;28;50066;-60
2022/01/04 09:05:26;;;;;;;;;11.50;7.75;;;;;-142.59;100.00;56100.38;4896019;28;49954;-61
2022/01/04 09:07:51;;;;;;;;;7.75;7.75;;;;;-142.59;100.00;56100.38;4895115;29;49899;-61
2022/01/04 09:10:17;;;;;;;;;8.00;6.50;;;;;-142.59;100.00;56100.38;4895831;28;50011;-61
2022/01/04 09:12:57;;;;;;;;;7.50;5.00;;;;;-142.59;100.00;56100.38;4895978;29;50354;-63
2022/01/04 09:15:32;;;;;;;;;7.00;7.00;;;;;-142.59;100.00;56100.38;4894272;28;49792;-61
2022/01/04 09:20:47;;;;;;;;;4.75;4.75;;;;;-142.59;100.00;56100.38;4896015;28;49829;-61
2022/01/04 09:23:20;;;;;;;;;3.50;2.50;;;;;-142.59;100.00;56100.38;4896056;28;49861;-61
2022/01/04 09:25:47;;;;;;;;;3.75;2.75;;;;;-142.59;100.00;56100.38;4895863;28;50207;-61
2022/01/04 09:28:13;;;;;;;;;4.00;4.00;;;;;-142.59;100.00;56100.38;4896231;28;49775;-61
2022/01/04 09:30:44;;;;;;;;;7.00;5.25;;;;;-142.59;100.00;56100.38;4895736;28;49846;-61
2022/01/04 09:33:09;;;;;;;;;7.00;5.00;;;;;-142.59;100.00;56100.38;4896019;28;49758;-61
2022/01/04 09:35:36;;;;;;;;;1.50;1.50;;;;;-142.59;100.00;56100.38;4895982;28;49648;-63
2022/01/04 09:38:03;;;;;;;;;3.50;3.00;;;;;-142.59;100.00;56100.38;4896112;28;49653;-61
2022/01/04 09:40:29;;;;;;;;;4.00;3.00;;;;;-142.59;100.00;56100.38;4895655;28;49732;-62
2022/01/04 09:42:54;;;;;;;;;1.50;1.50;;;;;-142.59;100.00;56100.38;4894427;28;49889;-64
2022/01/04 09:45:20;;;;;;;;;2.25;2.25;;;;;-142.59;100.00;56100.38;4895563;28;49885;-61
2022/01/04 09:47:46;;;;;;;;;1.50;1.00;;;;;-142.59;100.00;56100.38;4895967;28;49652;-62
2022/01/04 09:50:11;;;;;;;;;3.50;2.00;;;;;-142.59;100.00;56100.38;4895432;28;50780;-61
2022/01/04 09:52:46;;;;;;;;;3.50;3.50;;;;;-142.59;100.00;56100.38;4895760;29;49800;-61
2022/01/04 09:55:13;;;;;;;;;3.75;2.25;;;;;-142.59;100.00;56100.38;4895692;28;49984;-61
2022/01/04 09:57:39;;;;;;;;;2.25;2.00;;;;;-142.59;100.00;56100.38;4894362;29;50065;-62
2022/01/04 10:00:14;;;;;;;;;1.50;1.50;;;;;-142.59;100.00;56100.38;4895253;28;49712;-60
2022/01/04 10:02:40;;;;;;;;;2.00;2.00;;;;;-142.59;100.00;56100.38;4895511;28;49785;-61
2022/01/04 10:05:18;;;;;;;;;1.25;1.25;;;;;-142.59;100.00;56100.38;4895338;28;49865;-66
2022/01/04 10:07:45;;;;;;;;;4.00;4.00;;;;;-142.59;100.00;56100.38;4895592;28;49944;-66
2022/01/04 10:10:37;;;;;;;;;2.50;2.00;;;;;-142.59;100.00;56100.38;4894820;28;50317;-65
2022/01/04 10:13:06;;;;;;;;;2.25;2.25;;;;;-142.59;100.00;56100.38;4893330;28;49977;-65
2022/01/04 10:15:45;;;;;;;;;1.00;1.00;;;;;-142.59;100.00;56100.38;4894739;28;49811;-64
2022/01/04 10:18:13;;;;;;;;;2.00;2.00;;;;;-142.59;100.00;56100.38;4895359;28;49665;-64
2022/01/04 10:20:45;;;;;;;;;2.00;2.00;;;;;-142.59;100.00;56100.38;4893888;29;50671;-65
2022/01/04 10:23:13;;;;;;;;;2.25;2.25;;;;;-142.59;100.00;56100.38;4895115;28;49723;-65
2022/01/04 10:25:38;;;;;;;;;4.00;3.25;;;;;-142.59;100.00;56100.38;4893329;29;49850;-65
2022/01/04 10:28:04;;;;;;;;;1.75;1.75;;;;;-142.59;100.00;56100.38;4894932;28;49955;-64
2022/01/04 10:30:33;;;;;;;;;3.50;2.50;;;;;-142.59;100.00;56100.38;4895192;29;50274;-65
2022/01/04 10:33:03;;;;;;;;;3.75;3.50;;;;;-142.59;100.00;56100.38;4895154;29;49894;-65
2022/01/04 10:35:31;;;;;;;;;4.75;4.75;;;;;-142.59;100.00;56100.38;4895061;28;49765;-65
2022/01/04 10:38:01;;;;;;;;;4.00;3.25;;;;;-142.59;100.00;56100.38;4895277;28;50026;-64
2022/01/04 10:40:28;;;;;;;;;5.75;5.25;;;;;-142.59;100.00;56100.38;4894413;29;50687;-65
2022/01/04 10:42:54;;;;;;;;;3.50;1.75;;;;;-142.59;100.00;56100.38;4893312;28;49866;-64
2022/01/04 10:45:29;;;;;;;;;3.00;3.00;;;;;-142.59;100.00;56100.38;4894915;28;49793;-67
2022/01/04 10:47:57;;;;;;;;;3.00;1.25;;;;;-142.59;100.00;56100.38;4894934;28;49646;-67
2022/01/04 10:50:37;;;;;;;;;2.00;2.00;;;;;-142.59;100.00;56100.38;4892904;29;51129;-66
2022/01/04 10:53:03;;;;;;;;;2.00;2.00;;;;;-142.59;100.00;56100.38;4895116;28;49119;-64
2022/01/04 10:55:34;;;;;;;;;1.00;1.00;;;;;-142.59;100.00;56100.38;4894487;29;49828;-64
2022/01/04 10:58:01;;;;;;;;;2.00;2.00;;;;;-142.59;100.00;56100.38;4894653;28;49685;-71
2022/01/04 11:00:27;;;;;;;;;1.25;1.25;;;;;-142.59;100.00;56100.38;4893300;28;49742;-64
2022/01/04 11:02:53;;;;;;;;;1.00;1.00;;;;;-142.59;100.00;56100.38;4892435;28;49706;-64
2022/01/04 11:05:21;;;;;;;;;1.75;1.75;;;;;-142.59;100.00;56100.38;4891421;28;49760;-64
2022/01/04 11:08:04;;;;;;;;;1.00;0.00;;;;;-142.59;100.00;56100.38;4892521;28;49760;-65
2022/01/04 11:10:35;;;;;;;;;0.25;0.25;;;;;-142.59;100.00;56100.38;4891946;28;50279;-65
2022/01/04 11:13:02;;;;;;;;;0.00;0.00;;;;;-142.59;100.00;56100.38;4892696;28;50721;-65
2022/01/04 11:15:29;;;;;;;;;0.75;0.75;;;;;-142.59;100.00;56100.38;4892796;28;49927;-65